Terminal Aerodrome Forecast
Issued by NWS

Home | Current Version | Previous Version | Text Only | Print | Product List | Glossary On
Versions: 1 2 3 4 5 6 7 8 9 10 11 12 13 14 15 16 17 18
000
FTUS42 KMLB 260500
TAFLEE
TAF
KLEE 260522Z 2606/2706 01003KT P6SM FEW250
      TEMPO 2609/2612 5SM BR
     FM261400 03006KT P6SM FEW025 SCT250
     FM261800 05006KT P6SM SCT025 BKN050
     FM270000 04005KT P6SM OVC040=

USA.gov is the U.S. government's official web portal to all federal, state and local government web resources and services.